Time,TemperatureF,DewpointF,PressureIn,WindDirection,WindDirectionDegrees,WindSpeedMPH,WindSpeedGustMPH,Humidity,HourlyPrecipIn,Conditions,Clouds,dailyrainin,SolarRadiationWatts/m^2,SoftwareType,DateUTC
2013-04-20 00:01:00,50.4,44.1,29.83,West,271,3.0,4.0,79,0.00,,,0.00,0,Wunderground v.1.15,2013-04-20 04:01:00,
2013-04-20 00:02:00,50.4,44.1,29.83,West,267,3.0,4.0,79,0.00,,,0.00,0,Wunderground v.1.15,2013-04-20 04:02:00,
2013-04-20 00:04:00,50.4,44.1,29.83,West,275,3.0,5.0,79,0.00,,,0.00,0,Wunderground v.1.15,2013-04-20 04:04:00,
2013-04-20 00:07:00,50.3,44.4,29.83,WNW,290,3.0,5.0,80,0.00,,,0.00,0,Wunderground v.1.15,2013-04-20 04:07:00,
2013-04-20 00:09:00,50.2,44.3,29.83,WNW,300,3.0,5.0,80,0.00,,,0.00,0,Wunderground v.1.15,2013-04-20 04:09:00,
2013-04-20 00:14:00,50.1,44.5,29.83,WNW,292,2.0,4.0,81,0.00,,,0.00,0,Wunderground v.1.15,2013-04-20 04:14:00,
2013-04-20 00:20:00,49.9,43.6,29.83,NW,309,2.0,3.0,79,0.00,,,0.00,0,Wunderground v.1.15,2013-04-20 04:20:00,
2013-04-20 00:26:00,49.8,43.9,29.83,WNW,296,3.0,4.0,80,0.00,,,0.00,0,Wunderground v.1.15,2013-04-20 04:26:00,
2013-04-20 00:31:00,49.7,43.5,29.83,WNW,284,3.0,4.0,79,0.00,,,0.00,0,Wunderground v.1.15,2013-04-20 04:31:00,
2013-04-20 00:37:00,49.7,43.5,29.83,WNW,289,3.0,5.0,79,0.00,,,0.00,0,Wunderground v.1.15,2013-04-20 04:37:00,
2013-04-20 00:42:00,49.6,43.7,29.83,West,278,3.0,4.0,80,0.00,,,0.00,0,Wunderground v.1.15,2013-04-20 04:42:00,
2013-04-20 00:48:00,49.5,43.3,29.83,WNW,290,3.0,4.0,79,0.00,,,0.00,0,Wunderground v.1.15,2013-04-20 04:48:00,
2013-04-20 00:53:00,49.4,43.2,29.83,West,280,3.0,4.0,79,0.00,,,0.00,0,Wunderground v.1.15,2013-04-20 04:53:00,
2013-04-20 00:59:00,49.4,43.5,29.83,West,266,3.0,5.0,80,0.00,,,0.00,0,Wunderground v.1.15,2013-04-20 04:59:00,
2013-04-20 01:04:00,49.4,43.2,29.82,NW,309,3.0,4.0,79,0.00,,,0.00,0,Wunderground v.1.15,2013-04-20 05:04:00,
2013-04-20 01:10:00,49.4,43.2,29.82,WNW,284,3.0,4.0,79,0.00,,,0.00,0,Wunderground v.1.15,2013-04-20 05:10:00,
2013-04-20 01:15:00,49.3,42.7,29.83,WNW,284,3.0,5.0,78,0.00,,,0.00,0,Wunderground v.1.15,2013-04-20 05:15:00,
2013-04-20 01:21:00,49.2,42.6,29.81,WNW,290,4.0,4.0,78,0.00,,,0.00,0,Wunderground v.1.15,2013-04-20 05:21:00,
2013-04-20 01:27:00,49.1,42.2,29.83,WNW,289,3.0,4.0,77,0.00,,,0.00,0,Wunderground v.1.15,2013-04-20 05:27:00,
2013-04-20 01:32:00,48.9,42.3,29.82,WNW,300,4.0,6.0,78,0.00,,,0.00,0,Wunderground v.1.15,2013-04-20 05:32:00,
2013-04-20 01:38:00,48.8,42.2,29.84,SE,131,3.0,6.0,78,0.00,,,0.00,0,Wunderground v.1.15,2013-04-20 05:38:00,
2013-04-20 01:43:00,48.9,42.3,29.84,West,263,2.0,3.0,78,0.00,,,0.00,0,Wunderground v.1.15,2013-04-20 05:43:00,
2013-04-20 01:49:00,49.0,42.4,29.84,West,267,2.0,3.0,78,0.00,,,0.00,0,Wunderground v.1.15,2013-04-20 05:49:00,
2013-04-20 01:54:00,49.0,42.1,29.84,WNW,296,1.0,2.0,77,0.00,,,0.00,0,Wunderground v.1.15,2013-04-20 05:54:00,
2013-04-20 02:00:00,49.0,42.1,29.85,West,265,2.0,6.0,77,0.00,,,0.00,0,Wunderground v.1.15,2013-04-20 06:00:00,
2013-04-20 02:05:00,48.9,41.7,29.84,West,277,2.0,6.0,76,0.00,,,0.00,0,Wunderground v.1.15,2013-04-20 06:05:00,
2013-04-20 02:11:00,48.8,41.2,29.83,NNW,328,4.0,4.0,75,0.00,,,0.00,0,Wunderground v.1.15,2013-04-20 06:11:00,
2013-04-20 02:16:00,48.8,41.6,29.84,NW,309,3.0,4.0,76,0.00,,,0.00,0,Wunderground v.1.15,2013-04-20 06:16:00,
2013-04-20 02:22:00,48.8,41.2,29.84,WNW,296,2.0,5.0,75,0.00,,,0.00,0,Wunderground v.1.15,2013-04-20 06:22:00,
2013-04-20 02:28:00,48.8,41.2,29.85,SSE,155,2.0,5.0,75,0.00,,,0.00,0,Wunderground v.1.15,2013-04-20 06:28:00,
2013-04-20 02:33:00,48.8,40.5,29.85,NW,307,2.0,3.0,73,0.00,,,0.00,0,Wunderground v.1.15,2013-04-20 06:33:00,
2013-04-20 02:39:00,48.7,40.4,29.84,West,265,3.0,7.0,73,0.00,,,0.00,0,Wunderground v.1.15,2013-04-20 06:39:00,
2013-04-20 02:45:00,48.6,38.5,29.84,NW,307,4.0,8.0,68,0.00,,,0.00,0,Wunderground v.1.15,2013-04-20 06:45:00,
2013-04-20 02:50:00,48.6,39.3,29.85,West,270,4.0,4.0,70,0.00,,,0.00,0,Wunderground v.1.15,2013-04-20 06:50:00,
2013-04-20 02:56:00,48.5,39.2,29.84,WNW,288,4.0,8.0,70,0.00,,,0.00,0,Wunderground v.1.15,2013-04-20 06:56:00,
2013-04-20 03:02:00,48.3,38.6,29.84,West,279,5.0,8.0,69,0.00,,,0.00,0,Wunderground v.1.15,2013-04-20 07:02:00,
2013-04-20 03:07:00,48.2,38.9,29.85,West,281,5.0,8.0,70,0.00,,,0.00,0,Wunderground v.1.15,2013-04-20 07:07:00,
2013-04-20 03:13:00,48.1,38.0,29.86,WNW,294,6.0,6.0,68,0.00,,,0.00,0,Wunderground v.1.15,2013-04-20 07:13:00,
2013-04-20 03:19:00,48.1,37.7,29.87,NW,305,5.0,8.0,67,0.00,,,0.00,0,Wunderground v.1.15,2013-04-20 07:19:00,
2013-04-20 03:24:00,47.9,37.1,29.87,WSW,248,5.0,10.0,66,0.00,,,0.01,0,Wunderground v.1.15,2013-04-20 07:24:00,
2013-04-20 03:30:00,47.8,36.6,29.86,North,5,5.0,5.0,65,0.00,,,0.01,0,Wunderground v.1.15,2013-04-20 07:30:00,
2013-04-20 03:36:00,47.6,35.6,29.87,WNW,295,6.0,9.0,63,0.00,,,0.01,0,Wunderground v.1.15,2013-04-20 07:36:00,
2013-04-20 03:42:00,47.4,35.0,29.87,West,276,7.0,7.0,62,0.00,,,0.01,0,Wunderground v.1.15,2013-04-20 07:42:00,
2013-04-20 03:47:00,47.2,34.8,29.87,NW,314,7.0,7.0,62,0.00,,,0.01,0,Wunderground v.1.15,2013-04-20 07:47:00,
2013-04-20 03:53:00,47.0,34.6,29.88,NW,304,5.0,6.0,62,0.00,,,0.01,0,Wunderground v.1.15,2013-04-20 07:53:00,
2013-04-20 03:58:00,46.9,34.1,29.88,WNW,298,5.0,8.0,61,0.00,,,0.01,0,Wunderground v.1.15,2013-04-20 07:58:00,
2013-04-20 04:04:00,46.7,34.0,29.89,WNW,287,6.0,8.0,61,0.00,,,0.01,0,Wunderground v.1.15,2013-04-20 08:04:00,
2013-04-20 04:10:00,46.5,33.8,29.89,West,267,7.0,7.0,61,0.00,,,0.01,0,Wunderground v.1.15,2013-04-20 08:10:00,
2013-04-20 04:16:00,46.4,33.7,29.89,WNW,282,7.0,9.0,61,0.00,,,0.01,0,Wunderground v.1.15,2013-04-20 08:16:00,
2013-04-20 04:22:00,46.3,34.0,29.89,WNW,286,5.0,6.0,62,0.00,,,0.01,0,Wunderground v.1.15,2013-04-20 08:22:00,
2013-04-20 04:28:00,46.3,34.4,29.90,NW,305,3.0,7.0,63,0.00,,,0.01,0,Wunderground v.1.15,2013-04-20 08:28:00,
2013-04-20 04:34:00,46.2,34.7,29.91,West,276,3.0,6.0,64,0.00,,,0.01,0,Wunderground v.1.15,2013-04-20 08:34:00,
2013-04-20 04:40:00,46.1,33.8,29.90,WNW,290,4.0,4.0,62,0.00,,,0.01,0,Wunderground v.1.15,2013-04-20 08:40:00,
2013-04-20 04:46:00,46.1,34.2,29.90,WNW,290,4.0,5.0,63,0.00,,,0.01,0,Wunderground v.1.15,2013-04-20 08:46:00,
2013-04-20 04:52:00,46.1,34.2,29.91,WNW,282,3.0,6.0,63,0.00,,,0.01,0,Wunderground v.1.15,2013-04-20 08:52:00,
2013-04-20 04:58:00,46.1,34.6,29.91,WNW,289,4.0,6.0,64,0.00,,,0.01,0,Wunderground v.1.15,2013-04-20 08:58:00,
2013-04-20 05:04:00,46.0,34.5,29.92,WSW,257,4.0,7.0,64,0.00,,,0.01,0,Wunderground v.1.15,2013-04-20 09:04:00,
2013-04-20 05:10:00,45.7,34.6,29.92,WNW,299,6.0,6.0,65,0.00,,,0.01,0,Wunderground v.1.15,2013-04-20 09:10:00,
2013-04-20 05:15:00,45.5,33.6,29.93,WNW,284,7.0,12.0,63,0.00,,,0.01,0,Wunderground v.1.15,2013-04-20 09:15:00,
2013-04-20 05:20:00,45.4,33.5,29.93,NW,304,9.0,12.0,63,0.00,,,0.01,0,Wunderground v.1.15,2013-04-20 09:20:00,
2013-04-20 05:26:00,45.2,33.7,29.93,NW,304,8.0,12.0,64,0.00,,,0.01,0,Wunderground v.1.15,2013-04-20 09:26:00,
2013-04-20 05:31:00,45.0,33.5,29.93,West,266,7.0,7.0,64,0.00,,,0.01,0,Wunderground v.1.15,2013-04-20 09:31:00,
2013-04-20 05:37:00,44.9,33.5,29.93,WNW,287,6.0,7.0,64,0.00,,,0.01,0,Wunderground v.1.15,2013-04-20 09:37:00,
2013-04-20 05:43:00,44.9,33.8,29.93,West,280,5.0,5.0,65,0.00,,,0.01,0,Wunderground v.1.15,2013-04-20 09:43:00,
2013-04-20 05:49:00,44.7,34.0,29.94,NNE,15,5.0,8.0,66,0.00,,,0.01,0,Wunderground v.1.15,2013-04-20 09:49:00,
2013-04-20 05:55:00,44.5,33.8,29.94,WNW,284,5.0,7.0,66,0.00,,,0.01,0,Wunderground v.1.15,2013-04-20 09:55:00,
2013-04-20 06:00:00,44.4,33.7,29.94,NW,321,5.0,5.0,66,0.00,,,0.01,0,Wunderground v.1.15,2013-04-20 10:00:00,
2013-04-20 06:06:00,44.5,34.2,29.95,West,260,5.0,5.0,67,0.00,,,0.01,0,Wunderground v.1.15,2013-04-20 10:06:00,
2013-04-20 06:12:00,44.5,33.8,29.95,West,264,4.0,9.0,66,0.00,,,0.01,0,Wunderground v.1.15,2013-04-20 10:12:00,
2013-04-20 06:17:00,44.4,33.7,29.95,WNW,302,5.0,9.0,66,0.00,,,0.01,0,Wunderground v.1.15,2013-04-20 10:17:00,
2013-04-20 06:22:00,44.2,33.6,29.95,SW,227,5.0,9.0,66,0.00,,,0.01,0,Wunderground v.1.15,2013-04-20 10:22:00,
2013-04-20 06:28:00,44.1,33.1,29.96,West,269,5.0,9.0,65,0.00,,,0.01,5,Wunderground v.1.15,2013-04-20 10:28:00,
2013-04-20 06:34:00,43.9,32.1,29.96,West,272,5.0,7.0,63,0.00,,,0.01,9,Wunderground v.1.15,2013-04-20 10:34:00,
2013-04-20 06:40:00,43.8,32.0,29.97,NW,315,5.0,6.0,63,0.00,,,0.01,12,Wunderground v.1.15,2013-04-20 10:40:00,
2013-04-20 06:47:00,43.7,31.9,29.97,NW,304,5.0,8.0,63,0.00,,,0.01,16,Wunderground v.1.15,2013-04-20 10:47:00,
2013-04-20 06:52:00,43.5,31.7,29.97,WNW,300,5.0,6.0,63,0.00,,,0.01,14,Wunderground v.1.15,2013-04-20 10:52:00,
2013-04-20 06:57:00,43.4,31.6,29.97,West,273,5.0,6.0,63,0.00,,,0.01,16,Wunderground v.1.15,2013-04-20 10:57:00,
2013-04-20 07:03:00,43.4,31.6,29.98,West,279,5.0,5.0,63,0.00,,,0.01,16,Wunderground v.1.15,2013-04-20 11:03:00,
2013-04-20 07:09:00,43.2,31.1,29.97,WNW,294,4.0,6.0,62,0.00,,,0.01,18,Wunderground v.1.15,2013-04-20 11:09:00,
2013-04-20 07:14:00,43.2,30.6,29.98,West,275,5.0,5.0,61,0.00,,,0.01,25,Wunderground v.1.15,2013-04-20 11:14:00,
2013-04-20 07:20:00,43.2,30.6,29.98,West,273,4.0,4.0,61,0.00,,,0.01,14,Wunderground v.1.15,2013-04-20 11:20:00,
2013-04-20 07:25:00,43.1,31.0,29.98,WNW,290,3.0,4.0,62,0.00,,,0.01,21,Wunderground v.1.15,2013-04-20 11:25:00,
2013-04-20 07:31:00,42.9,30.4,29.99,West,280,4.0,5.0,61,0.00,,,0.01,19,Wunderground v.1.15,2013-04-20 11:31:00,
2013-04-20 07:36:00,42.8,30.3,29.99,NNW,336,5.0,7.0,61,0.00,,,0.01,21,Wunderground v.1.15,2013-04-20 11:36:00,
2013-04-20 07:42:00,42.7,30.6,30.00,WNW,300,5.0,7.0,62,0.00,,,0.01,53,Wunderground v.1.15,2013-04-20 11:42:00,
2013-04-20 07:48:00,42.8,30.7,30.00,West,270,5.0,7.0,62,0.00,,,0.01,70,Wunderground v.1.15,2013-04-20 11:48:00,
2013-04-20 07:53:00,42.9,30.8,29.99,West,264,4.0,9.0,62,0.00,,,0.01,35,Wunderground v.1.15,2013-04-20 11:53:00,
2013-04-20 07:59:00,43.1,30.1,30.00,NW,304,5.0,9.0,60,0.00,,,0.01,160,Wunderground v.1.15,2013-04-20 11:59:00,
2013-04-20 08:04:00,43.3,30.7,30.00,West,281,6.0,10.0,61,0.00,,,0.01,49,Wunderground v.1.15,2013-04-20 12:04:00,
2013-04-20 08:10:00,43.5,30.5,30.00,NW,318,7.0,7.0,60,0.00,,,0.01,47,Wunderground v.1.15,2013-04-20 12:10:00,
2013-04-20 08:16:00,43.8,30.8,30.00,WSW,251,6.0,7.0,60,0.00,,,0.01,332,Wunderground v.1.15,2013-04-20 12:16:00,
2013-04-20 08:21:00,44.2,30.8,30.00,West,278,5.0,8.0,59,0.00,,,0.01,346,Wunderground v.1.15,2013-04-20 12:21:00,
2013-04-20 08:26:00,44.3,30.0,30.00,WSW,253,5.0,8.0,57,0.00,,,0.01,366,Wunderground v.1.15,2013-04-20 12:26:00,
2013-04-20 08:32:00,44.5,30.6,30.00,NW,317,7.0,7.0,58,0.00,,,0.01,385,Wunderground v.1.15,2013-04-20 12:32:00,
2013-04-20 08:38:00,44.7,30.0,30.00,WNW,300,6.0,9.0,56,0.00,,,0.01,411,Wunderground v.1.15,2013-04-20 12:38:00,
2013-04-20 08:44:00,44.9,30.6,30.00,SW,233,7.0,11.0,57,0.00,,,0.01,429,Wunderground v.1.15,2013-04-20 12:44:00,
2013-04-20 08:49:00,44.8,30.9,30.00,WNW,298,7.0,11.0,58,0.00,,,0.01,443,Wunderground v.1.15,2013-04-20 12:49:00,
2013-04-20 08:55:00,44.8,30.5,30.00,NW,306,8.0,10.0,57,0.00,,,0.01,466,Wunderground v.1.15,2013-04-20 12:55:00,
2013-04-20 09:00:00,44.9,31.0,30.00,West,277,8.0,8.0,58,0.00,,,0.01,506,Wunderground v.1.15,2013-04-20 13:00:00,
2013-04-20 09:06:00,45.1,30.8,30.00,NW,316,7.0,12.0,57,0.00,,,0.01,526,Wunderground v.1.15,2013-04-20 13:06:00,
2013-04-20 09:12:00,45.3,30.5,30.00,WNW,283,7.0,8.0,56,0.00,,,0.01,547,Wunderground v.1.15,2013-04-20 13:12:00,
2013-04-20 09:18:00,45.6,31.2,30.00,North,350,7.0,11.0,57,0.00,,,0.01,573,Wunderground v.1.15,2013-04-20 13:18:00,
2013-04-20 09:23:00,45.6,30.3,30.01,North,360,8.0,8.0,55,0.00,,,0.01,181,Wunderground v.1.15,2013-04-20 13:23:00,
2013-04-20 09:28:00,45.6,31.2,30.01,WNW,287,7.0,11.0,57,0.00,,,0.01,652,Wunderground v.1.15,2013-04-20 13:28:00,
2013-04-20 09:34:00,46.2,31.4,30.01,West,278,7.0,8.0,56,0.00,,,0.01,703,Wunderground v.1.15,2013-04-20 13:34:00,
2013-04-20 09:39:00,46.3,30.5,30.01,WNW,289,8.0,14.0,54,0.00,,,0.01,229,Wunderground v.1.15,2013-04-20 13:39:00,
2013-04-20 09:45:00,46.2,30.5,30.02,WNW,288,9.0,10.0,54,0.00,,,0.01,200,Wunderground v.1.15,2013-04-20 13:45:00,
2013-04-20 09:50:00,46.1,30.4,30.02,SSW,201,8.0,10.0,54,0.00,,,0.01,281,Wunderground v.1.15,2013-04-20 13:50:00,
2013-04-20 09:56:00,46.3,31.0,30.02,West,271,8.0,8.0,55,0.00,,,0.01,295,Wunderground v.1.15,2013-04-20 13:56:00,
2013-04-20 10:02:00,46.2,30.5,30.03,West,267,8.0,10.0,54,0.00,,,0.01,237,Wunderground v.1.15,2013-04-20 14:02:00,
2013-04-20 10:08:00,46.3,30.5,30.02,West,264,7.0,10.0,54,0.00,,,0.01,782,Wunderground v.1.15,2013-04-20 14:08:00,
2013-04-20 10:13:00,46.9,30.2,30.03,West,262,8.0,9.0,52,0.00,,,0.01,795,Wunderground v.1.15,2013-04-20 14:13:00,
2013-04-20 10:19:00,47.0,29.8,30.03,West,271,8.0,12.0,51,0.00,,,0.01,243,Wunderground v.1.15,2013-04-20 14:19:00,
2013-04-20 10:24:00,46.8,29.6,30.03,West,261,9.0,12.0,51,0.00,,,0.01,819,Wunderground v.1.15,2013-04-20 14:24:00,
2013-04-20 10:30:00,46.7,29.5,30.04,NNW,329,9.0,9.0,51,0.00,,,0.01,288,Wunderground v.1.15,2013-04-20 14:30:00,
2013-04-20 10:36:00,47.1,30.4,30.05,West,263,9.0,12.0,52,0.00,,,0.01,900,Wunderground v.1.15,2013-04-20 14:36:00,
2013-04-20 10:42:00,47.6,28.9,30.05,East,94,10.0,13.0,48,0.00,,,0.01,911,Wunderground v.1.15,2013-04-20 14:42:00,
2013-04-20 10:47:00,47.8,29.5,30.05,WNW,298,9.0,13.0,49,0.00,,,0.01,893,Wunderground v.1.15,2013-04-20 14:47:00,
2013-04-20 10:53:00,48.2,28.9,30.05,WNW,298,10.0,11.0,47,0.00,,,0.01,225,Wunderground v.1.15,2013-04-20 14:53:00,
2013-04-20 10:59:00,48.1,28.3,30.06,WNW,284,9.0,13.0,46,0.00,,,0.01,944,Wunderground v.1.15,2013-04-20 14:59:00,
2013-04-20 11:05:00,47.9,28.6,30.06,WNW,290,9.0,14.0,47,0.00,,,0.01,206,Wunderground v.1.15,2013-04-20 15:05:00,
2013-04-20 11:11:00,47.7,27.4,30.06,NW,317,10.0,10.0,45,0.00,,,0.01,274,Wunderground v.1.15,2013-04-20 15:11:00,
2013-04-20 11:17:00,47.8,28.0,30.06,NW,319,10.0,10.0,46,0.00,,,0.01,272,Wunderground v.1.15,2013-04-20 15:17:00,
2013-04-20 11:22:00,48.4,28.0,30.06,WNW,285,8.0,11.0,45,0.00,,,0.01,348,Wunderground v.1.15,2013-04-20 15:22:00,
2013-04-20 11:28:00,48.0,28.2,30.07,WNW,293,8.0,13.0,46,0.00,,,0.01,345,Wunderground v.1.15,2013-04-20 15:28:00,
2013-04-20 11:34:00,48.2,27.3,30.07,SE,142,9.0,16.0,44,0.00,,,0.01,1118,Wunderground v.1.15,2013-04-20 15:34:00,
2013-04-20 11:40:00,48.7,27.7,30.07,WNW,288,9.0,10.0,44,0.00,,,0.01,868,Wunderground v.1.15,2013-04-20 15:40:00,
2013-04-20 11:45:00,48.6,28.2,30.08,WNW,288,10.0,13.0,45,0.00,,,0.01,385,Wunderground v.1.15,2013-04-20 15:45:00,
2013-04-20 11:50:00,48.6,27.6,30.08,WNW,285,11.0,11.0,44,0.00,,,0.01,1125,Wunderground v.1.15,2013-04-20 15:50:00,
2013-04-20 11:56:00,49.1,27.5,30.07,West,281,9.0,11.0,43,0.00,,,0.01,1162,Wunderground v.1.15,2013-04-20 15:56:00,
2013-04-20 12:02:00,49.0,27.5,30.08,WNW,302,9.0,15.0,43,0.00,,,0.01,638,Wunderground v.1.15,2013-04-20 16:02:00,
2013-04-20 12:08:00,48.8,27.3,30.08,North,355,10.0,15.0,43,0.00,,,0.01,369,Wunderground v.1.15,2013-04-20 16:08:00,
2013-04-20 12:14:00,49.1,29.2,30.08,West,260,9.0,10.0,46,0.00,,,0.01,367,Wunderground v.1.15,2013-04-20 16:14:00,
2013-04-20 12:20:00,48.5,29.2,30.09,WNW,295,8.0,8.0,47,0.00,,,0.01,369,Wunderground v.1.15,2013-04-20 16:20:00,
2013-04-20 12:26:00,48.4,29.1,30.09,NW,317,8.0,12.0,47,0.00,,,0.01,295,Wunderground v.1.15,2013-04-20 16:26:00,
2013-04-20 12:31:00,48.3,30.0,30.09,WNW,285,8.0,9.0,49,0.00,,,0.01,323,Wunderground v.1.15,2013-04-20 16:31:00,
2013-04-20 12:37:00,48.8,30.0,30.09,WNW,287,8.0,10.0,48,0.00,,,0.01,1081,Wunderground v.1.15,2013-04-20 16:37:00,
2013-04-20 12:42:00,49.5,29.6,30.09,West,277,7.0,10.0,46,0.00,,,0.01,415,Wunderground v.1.15,2013-04-20 16:42:00,
2013-04-20 12:48:00,49.5,29.6,30.09,West,274,6.0,13.0,46,0.00,,,0.01,1199,Wunderground v.1.15,2013-04-20 16:48:00,
2013-04-20 12:54:00,50.0,29.5,30.08,SE,126,7.0,14.0,45,0.00,,,0.01,1083,Wunderground v.1.15,2013-04-20 16:54:00,
2013-04-20 13:00:00,49.8,28.7,30.08,South,171,8.0,8.0,44,0.00,,,0.01,1044,Wunderground v.1.15,2013-04-20 17:00:00,
2013-04-20 13:05:00,49.7,28.6,30.08,NW,316,8.0,13.0,44,0.00,,,0.01,302,Wunderground v.1.15,2013-04-20 17:05:00,
2013-04-20 13:11:00,50.0,29.5,30.08,West,273,7.0,8.0,45,0.00,,,0.01,1069,Wunderground v.1.15,2013-04-20 17:11:00,
2013-04-20 13:17:00,50.7,30.1,30.08,WNW,284,7.0,9.0,45,0.00,,,0.01,1172,Wunderground v.1.15,2013-04-20 17:17:00,
2013-04-20 13:23:00,51.1,28.8,30.08,West,259,7.0,9.0,42,0.00,,,0.01,1172,Wunderground v.1.15,2013-04-20 17:23:00,
2013-04-20 13:28:00,50.4,28.1,30.08,NW,304,7.0,13.0,42,0.00,,,0.01,387,Wunderground v.1.15,2013-04-20 17:28:00,
2013-04-20 13:34:00,50.6,29.5,30.08,WNW,293,7.0,12.0,44,0.00,,,0.01,348,Wunderground v.1.15,2013-04-20 17:34:00,
2013-04-20 13:40:00,51.5,28.6,30.09,West,263,7.0,11.0,41,0.00,,,0.01,329,Wunderground v.1.15,2013-04-20 17:40:00,
2013-04-20 13:46:00,51.3,29.5,30.08,WNW,293,8.0,11.0,43,0.00,,,0.01,1123,Wunderground v.1.15,2013-04-20 17:46:00,
2013-04-20 13:51:00,51.5,29.1,30.09,West,264,8.0,11.0,42,0.00,,,0.01,1123,Wunderground v.1.15,2013-04-20 17:51:00,
2013-04-20 13:57:00,51.1,29.4,30.09,NNW,342,9.0,11.0,43,0.00,,,0.01,343,Wunderground v.1.15,2013-04-20 17:57:00,
2013-04-20 14:03:00,50.7,29.0,30.09,NW,311,9.0,14.0,43,0.00,,,0.01,292,Wunderground v.1.15,2013-04-20 18:03:00,
2013-04-20 14:08:00,50.3,29.2,30.09,WNW,302,9.0,14.0,44,0.00,,,0.01,311,Wunderground v.1.15,2013-04-20 18:08:00,
2013-04-20 14:14:00,50.5,29.4,30.09,WNW,287,8.0,9.0,44,0.00,,,0.01,1153,Wunderground v.1.15,2013-04-20 18:14:00,
2013-04-20 14:20:00,51.6,29.2,30.09,WSW,249,7.0,7.0,42,0.00,,,0.01,1065,Wunderground v.1.15,2013-04-20 18:20:00,
2013-04-20 14:25:00,52.2,30.9,30.09,NW,308,7.0,11.0,44,0.00,,,0.01,986,Wunderground v.1.15,2013-04-20 18:25:00,
2013-04-20 14:31:00,52.0,30.7,30.10,NNW,328,8.0,10.0,44,0.00,,,0.01,914,Wunderground v.1.15,2013-04-20 18:31:00,
2013-04-20 14:37:00,51.8,29.4,30.09,WNW,302,8.0,10.0,42,0.00,,,0.01,1046,Wunderground v.1.15,2013-04-20 18:37:00,
2013-04-20 14:43:00,51.5,30.8,30.09,West,270,9.0,10.0,45,0.00,,,0.01,346,Wunderground v.1.15,2013-04-20 18:43:00,
2013-04-20 14:48:00,51.9,31.2,30.10,WNW,293,9.0,18.0,45,0.00,,,0.01,979,Wunderground v.1.15,2013-04-20 18:48:00,
2013-04-20 14:54:00,51.8,31.1,30.10,NW,315,9.0,10.0,45,0.00,,,0.01,292,Wunderground v.1.15,2013-04-20 18:54:00,
2013-04-20 15:00:00,50.9,29.7,30.10,NW,319,8.0,8.0,44,0.00,,,0.01,294,Wunderground v.1.15,2013-04-20 19:00:00,
2013-04-20 15:05:00,50.9,30.8,30.11,WNW,284,8.0,11.0,46,0.00,,,0.01,227,Wunderground v.1.15,2013-04-20 19:05:00,
2013-04-20 15:11:00,50.2,29.7,30.11,NNW,338,8.0,11.0,45,0.00,,,0.01,230,Wunderground v.1.15,2013-04-20 19:11:00,
2013-04-20 15:16:00,50.5,29.9,30.11,West,269,7.0,15.0,45,0.00,,,0.01,357,Wunderground v.1.15,2013-04-20 19:16:00,
2013-04-20 15:22:00,50.5,29.9,30.12,West,281,7.0,11.0,45,0.00,,,0.01,432,Wunderground v.1.15,2013-04-20 19:22:00,
2013-04-20 15:28:00,51.0,29.3,30.12,WNW,283,7.0,12.0,43,0.00,,,0.01,262,Wunderground v.1.15,2013-04-20 19:28:00,
2013-04-20 15:34:00,50.5,29.4,30.12,NW,324,8.0,11.0,44,0.00,,,0.01,248,Wunderground v.1.15,2013-04-20 19:34:00,
2013-04-20 15:39:00,50.3,29.7,30.12,WSW,240,8.0,12.0,45,0.00,,,0.01,243,Wunderground v.1.15,2013-04-20 19:39:00,
2013-04-20 15:44:00,50.3,28.1,30.12,WNW,295,7.0,8.0,42,0.00,,,0.01,190,Wunderground v.1.15,2013-04-20 19:44:00,
2013-04-20 15:50:00,50.5,29.9,30.13,West,259,7.0,7.0,45,0.00,,,0.01,171,Wunderground v.1.15,2013-04-20 19:50:00,
2013-04-20 15:55:00,50.5,28.8,30.13,West,276,7.0,11.0,43,0.00,,,0.01,199,Wunderground v.1.15,2013-04-20 19:55:00,
2013-04-20 16:00:00,51.0,29.3,30.13,NW,309,7.0,11.0,43,0.00,,,0.01,840,Wunderground v.1.15,2013-04-20 20:00:00,
2013-04-20 16:06:00,51.7,27.5,30.13,West,278,8.0,14.0,39,0.00,,,0.01,735,Wunderground v.1.15,2013-04-20 20:06:00,
2013-04-20 16:12:00,51.4,27.9,30.13,NNW,329,9.0,9.0,40,0.00,,,0.01,160,Wunderground v.1.15,2013-04-20 20:12:00,
2013-04-20 16:18:00,52.4,28.8,30.13,NNW,331,8.0,10.0,40,0.00,,,0.01,694,Wunderground v.1.15,2013-04-20 20:18:00,
2013-04-20 16:24:00,52.6,27.0,30.13,WNW,302,8.0,14.0,37,0.00,,,0.01,682,Wunderground v.1.15,2013-04-20 20:24:00,
2013-04-20 16:29:00,52.6,27.7,30.14,WNW,297,8.0,14.0,38,0.00,,,0.01,487,Wunderground v.1.15,2013-04-20 20:29:00,
2013-04-20 16:35:00,52.2,26.0,30.15,WSW,244,8.0,10.0,36,0.00,,,0.01,694,Wunderground v.1.15,2013-04-20 20:35:00,
2013-04-20 16:41:00,51.8,26.3,30.15,NW,305,8.0,9.0,37,0.00,,,0.01,612,Wunderground v.1.15,2013-04-20 20:41:00,
2013-04-20 16:47:00,51.3,26.5,30.15,NNW,333,7.0,9.0,38,0.00,,,0.01,151,Wunderground v.1.15,2013-04-20 20:47:00,
2013-04-20 16:53:00,51.0,26.9,30.15,NW,308,7.0,8.0,39,0.00,,,0.01,104,Wunderground v.1.15,2013-04-20 20:53:00,
2013-04-20 16:59:00,51.3,26.5,30.15,WNW,292,8.0,12.0,38,0.00,,,0.01,332,Wunderground v.1.15,2013-04-20 20:59:00,
2013-04-20 17:05:00,50.5,25.2,30.17,WNW,296,10.0,13.0,37,0.00,,,0.01,109,Wunderground v.1.15,2013-04-20 21:05:00,
2013-04-20 17:11:00,50.1,26.7,30.17,NW,309,9.0,9.0,40,0.00,,,0.01,179,Wunderground v.1.15,2013-04-20 21:11:00,
2013-04-20 17:16:00,50.2,26.8,30.17,West,274,6.0,9.0,40,0.00,,,0.01,200,Wunderground v.1.15,2013-04-20 21:16:00,
2013-04-20 17:21:00,50.3,26.3,30.18,West,269,7.0,10.0,39,0.00,,,0.01,151,Wunderground v.1.15,2013-04-20 21:21:00,
2013-04-20 17:27:00,50.1,26.1,30.18,WNW,287,7.0,11.0,39,0.00,,,0.01,176,Wunderground v.1.15,2013-04-20 21:27:00,
2013-04-20 17:32:00,50.2,26.2,30.18,WSW,246,7.0,8.0,39,0.00,,,0.01,130,Wunderground v.1.15,2013-04-20 21:32:00,
2013-04-20 17:38:00,50.7,26.6,30.18,WNW,287,6.0,9.0,39,0.00,,,0.01,97,Wunderground v.1.15,2013-04-20 21:38:00,
2013-04-20 17:44:00,50.8,26.1,30.19,NNW,329,8.0,13.0,38,0.00,,,0.01,81,Wunderground v.1.15,2013-04-20 21:44:00,
2013-04-20 17:50:00,50.2,26.2,30.19,WNW,294,9.0,9.0,39,0.00,,,0.01,134,Wunderground v.1.15,2013-04-20 21:50:00,
2013-04-20 17:55:00,50.5,25.8,30.20,WNW,283,8.0,12.0,38,0.00,,,0.01,109,Wunderground v.1.15,2013-04-20 21:55:00,
2013-04-20 18:00:00,49.9,25.9,30.20,WNW,303,9.0,9.0,39,0.00,,,0.01,77,Wunderground v.1.15,2013-04-20 22:00:00,
2013-04-20 18:06:00,49.4,26.1,30.21,NW,310,9.0,12.0,40,0.00,,,0.01,76,Wunderground v.1.15,2013-04-20 22:06:00,
2013-04-20 18:12:00,49.1,25.2,30.21,NW,311,8.0,9.0,39,0.00,,,0.01,100,Wunderground v.1.15,2013-04-20 22:12:00,
2013-04-20 18:18:00,49.2,27.1,30.21,NW,325,8.0,10.0,42,0.00,,,0.01,107,Wunderground v.1.15,2013-04-20 22:18:00,
2013-04-20 18:24:00,49.4,26.1,30.22,NNW,348,8.0,12.0,40,0.00,,,0.01,77,Wunderground v.1.15,2013-04-20 22:24:00,
2013-04-20 18:30:00,49.4,25.4,30.22,NNW,347,9.0,9.0,39,0.00,,,0.01,56,Wunderground v.1.15,2013-04-20 22:30:00,
2013-04-20 18:36:00,49.3,26.0,30.22,North,355,9.0,10.0,40,0.00,,,0.01,42,Wunderground v.1.15,2013-04-20 22:36:00,
2013-04-20 18:42:00,48.7,25.4,30.23,NW,311,9.0,9.0,40,0.00,,,0.01,44,Wunderground v.1.15,2013-04-20 22:42:00,
2013-04-20 18:48:00,48.4,25.8,30.24,NW,306,8.0,10.0,41,0.00,,,0.01,42,Wunderground v.1.15,2013-04-20 22:48:00,
2013-04-20 18:53:00,48.1,25.5,30.24,West,277,8.0,11.0,41,0.00,,,0.01,39,Wunderground v.1.15,2013-04-20 22:53:00,
2013-04-20 18:59:00,47.9,26.5,30.25,WNW,290,7.0,11.0,43,0.00,,,0.01,37,Wunderground v.1.15,2013-04-20 22:59:00,
2013-04-20 19:04:00,47.7,25.1,30.25,NNW,330,7.0,9.0,41,0.00,,,0.01,35,Wunderground v.1.15,2013-04-20 23:04:00,
2013-04-20 19:11:00,47.6,26.7,30.26,WNW,302,8.0,8.0,44,0.00,,,0.01,33,Wunderground v.1.15,2013-04-20 23:11:00,
2013-04-20 19:16:00,47.3,25.9,30.26,NNW,340,8.0,10.0,43,0.00,,,0.01,39,Wunderground v.1.15,2013-04-20 23:16:00,
2013-04-20 19:21:00,47.1,25.2,30.26,WNW,294,9.0,13.0,42,0.00,,,0.01,37,Wunderground v.1.15,2013-04-20 23:21:00,
2013-04-20 19:27:00,46.9,25.0,30.27,WNW,303,9.0,13.0,42,0.00,,,0.01,19,Wunderground v.1.15,2013-04-20 23:27:00,
2013-04-20 19:32:00,46.7,24.8,30.27,North,360,9.0,9.0,42,0.00,,,0.01,16,Wunderground v.1.15,2013-04-20 23:32:00,
2013-04-20 19:38:00,46.5,24.6,30.28,NNW,330,8.0,9.0,42,0.00,,,0.01,12,Wunderground v.1.15,2013-04-20 23:38:00,
2013-04-20 19:44:00,46.3,25.0,30.28,NNW,336,7.0,11.0,43,0.00,,,0.01,9,Wunderground v.1.15,2013-04-20 23:44:00,
2013-04-20 19:49:00,46.1,24.8,30.29,NW,307,7.0,11.0,43,0.00,,,0.01,5,Wunderground v.1.15,2013-04-20 23:49:00,
2013-04-20 19:55:00,45.9,24.6,30.29,WNW,283,7.0,8.0,43,0.00,,,0.01,0,Wunderground v.1.15,2013-04-20 23:55:00,
2013-04-20 20:00:00,45.7,24.5,30.29,NW,325,7.0,7.0,43,0.00,,,0.01,0,Wunderground v.1.15,2013-04-21 00:00:00,
2013-04-20 20:06:00,45.6,24.9,30.30,NW,304,7.0,8.0,44,0.00,,,0.01,0,Wunderground v.1.15,2013-04-21 00:06:00,
2013-04-20 20:12:00,45.4,24.7,30.31,North,351,6.0,12.0,44,0.00,,,0.01,0,Wunderground v.1.15,2013-04-21 00:12:00,
2013-04-20 20:18:00,45.2,24.6,30.31,NW,319,6.0,12.0,44,0.00,,,0.01,0,Wunderground v.1.15,2013-04-21 00:18:00,
2013-04-20 20:23:00,45.1,25.0,30.32,NW,304,6.0,6.0,45,0.00,,,0.01,0,Wunderground v.1.15,2013-04-21 00:23:00,
2013-04-20 20:28:00,44.9,25.3,30.32,NW,313,5.0,6.0,46,0.00,,,0.01,0,Wunderground v.1.15,2013-04-21 00:28:00,
2013-04-20 20:34:00,44.7,25.7,30.32,NW,309,4.0,5.0,47,0.00,,,0.01,0,Wunderground v.1.15,2013-04-21 00:34:00,
2013-04-20 20:40:00,44.5,25.5,30.33,NW,306,2.0,2.0,47,0.00,,,0.01,0,Wunderground v.1.15,2013-04-21 00:40:00,
2013-04-20 20:46:00,44.3,25.3,30.33,NW,309,3.0,6.0,47,0.00,,,0.01,0,Wunderground v.1.15,2013-04-21 00:46:00,
2013-04-20 20:51:00,44.2,25.7,30.34,NNW,347,3.0,6.0,48,0.00,,,0.01,0,Wunderground v.1.15,2013-04-21 00:51:00,
2013-04-20 20:57:00,44.0,25.5,30.34,NW,318,5.0,6.0,48,0.00,,,0.01,0,Wunderground v.1.15,2013-04-21 00:57:00,
2013-04-20 21:03:00,43.8,25.4,30.35,WNW,302,4.0,5.0,48,0.00,,,0.01,0,Wunderground v.1.15,2013-04-21 01:03:00,
2013-04-20 21:09:00,43.7,25.3,30.35,NNW,331,4.0,5.0,48,0.00,,,0.01,0,Wunderground v.1.15,2013-04-21 01:09:00,
2013-04-20 21:14:00,43.6,25.2,30.35,NW,313,4.0,4.0,48,0.00,,,0.01,0,Wunderground v.1.15,2013-04-21 01:14:00,
2013-04-20 21:20:00,43.5,25.1,30.36,West,280,4.0,5.0,48,0.00,,,0.01,0,Wunderground v.1.15,2013-04-21 01:20:00,
2013-04-20 21:26:00,43.3,25.4,30.36,WNW,284,3.0,4.0,49,0.00,,,0.01,0,Wunderground v.1.15,2013-04-21 01:26:00,
2013-04-20 21:32:00,43.2,24.8,30.36,NW,311,2.0,5.0,48,0.00,,,0.01,0,Wunderground v.1.15,2013-04-21 01:32:00,
2013-04-20 21:37:00,43.0,24.6,30.37,NW,323,3.0,7.0,48,0.00,,,0.01,0,Wunderground v.1.15,2013-04-21 01:37:00,
2013-04-20 21:42:00,42.9,24.0,30.37,NNW,331,4.0,5.0,47,0.00,,,0.01,0,Wunderground v.1.15,2013-04-21 01:42:00,
2013-04-20 21:48:00,42.8,24.4,30.38,North,355,3.0,5.0,48,0.00,,,0.01,0,Wunderground v.1.15,2013-04-21 01:48:00,
2013-04-20 21:54:00,42.7,24.4,30.38,WNW,301,3.0,4.0,48,0.00,,,0.01,0,Wunderground v.1.15,2013-04-21 01:54:00,
2013-04-20 22:00:00,42.5,24.2,30.39,WNW,298,3.0,3.0,48,0.00,,,0.01,0,Wunderground v.1.15,2013-04-21 02:00:00,
2013-04-20 22:06:00,42.4,24.1,30.39,NW,309,3.0,4.0,48,0.00,,,0.01,0,Wunderground v.1.15,2013-04-21 02:06:00,
2013-04-20 22:11:00,42.3,24.0,30.40,NW,310,3.0,3.0,48,0.00,,,0.01,0,Wunderground v.1.15,2013-04-21 02:11:00,
2013-04-20 22:17:00,42.0,24.2,30.40,WNW,294,4.0,4.0,49,0.00,,,0.01,0,Wunderground v.1.15,2013-04-21 02:17:00,
2013-04-20 22:23:00,41.8,24.0,30.41,NW,304,3.0,3.0,49,0.00,,,0.01,0,Wunderground v.1.15,2013-04-21 02:23:00,
2013-04-20 22:28:00,41.6,23.3,30.41,NNW,334,3.0,4.0,48,0.00,,,0.01,0,Wunderground v.1.15,2013-04-21 02:28:00,
2013-04-20 22:34:00,41.5,22.7,30.41,NW,312,4.0,5.0,47,0.00,,,0.01,0,Wunderground v.1.15,2013-04-21 02:34:00,
2013-04-20 22:40:00,41.4,23.2,30.41,WNW,292,4.0,4.0,48,0.00,,,0.01,0,Wunderground v.1.15,2013-04-21 02:40:00,
2013-04-20 22:45:00,41.2,22.0,30.41,North,355,5.0,7.0,46,0.00,,,0.01,0,Wunderground v.1.15,2013-04-21 02:45:00,
2013-04-20 22:51:00,41.0,21.8,30.42,WNW,285,5.0,7.0,46,0.00,,,0.01,0,Wunderground v.1.15,2013-04-21 02:51:00,
2013-04-20 22:57:00,40.9,22.2,30.42,NW,309,5.0,7.0,47,0.00,,,0.01,0,Wunderground v.1.15,2013-04-21 02:57:00,
2013-04-20 23:02:00,40.7,22.0,30.42,West,279,4.0,6.0,47,0.00,,,0.01,0,Wunderground v.1.15,2013-04-21 03:02:00,
2013-04-20 23:08:00,40.5,21.8,30.42,NW,322,4.0,6.0,47,0.00,,,0.01,0,Wunderground v.1.15,2013-04-21 03:08:00,
2013-04-20 23:14:00,40.3,21.6,30.42,NNW,343,4.0,5.0,47,0.00,,,0.01,0,Wunderground v.1.15,2013-04-21 03:14:00,
2013-04-20 23:19:00,40.2,21.6,30.43,WNW,287,4.0,5.0,47,0.00,,,0.01,0,Wunderground v.1.15,2013-04-21 03:19:00,
2013-04-20 23:25:00,40.0,21.4,30.43,North,350,3.0,4.0,47,0.00,,,0.01,0,Wunderground v.1.15,2013-04-21 03:25:00,
2013-04-20 23:31:00,39.8,21.7,30.44,WNW,302,3.0,6.0,48,0.00,,,0.01,0,Wunderground v.1.15,2013-04-21 03:31:00,
2013-04-20 23:36:00,39.7,21.6,30.44,WNW,303,4.0,6.0,48,0.00,,,0.01,0,Wunderground v.1.15,2013-04-21 03:36:00,
2013-04-20 23:42:00,39.5,21.9,30.44,NNW,334,4.0,4.0,49,0.00,,,0.01,0,Wunderground v.1.15,2013-04-21 03:42:00,
2013-04-20 23:48:00,39.4,21.3,30.45,WSW,253,3.0,5.0,48,0.00,,,0.01,0,Wunderground v.1.15,2013-04-21 03:48:00,
2013-04-20 23:54:00,39.2,21.6,30.45,WNW,292,2.0,4.0,49,0.00,,,0.01,0,Wunderground v.1.15,2013-04-21 03:54:00,